sensor_id;sensor_type;location;lat;lon;timestamp;P1;durP1;ratioP1;P2;durP2;ratioP2
83682;SDS011;73663;51.298;5.802;2024-03-17T00:02:18;8.57;;;4.90;;
83682;SDS011;73663;51.298;5.802;2024-03-17T00:07:26;9.07;;;5.32;;
83682;SDS011;73663;51.298;5.802;2024-03-17T00:12:34;10.27;;;5.13;;
83682;SDS011;73663;51.298;5.802;2024-03-17T00:17:41;11.05;;;5.18;;
83682;SDS011;73663;51.298;5.802;2024-03-17T00:22:49;9.93;;;5.43;;
83682;SDS011;73663;51.298;5.802;2024-03-17T00:27:57;10.02;;;5.38;;
83682;SDS011;73663;51.298;5.802;2024-03-17T00:33:04;9.93;;;5.47;;
83682;SDS011;73663;51.298;5.802;2024-03-17T00:38:12;10.85;;;5.63;;
83682;SDS011;73663;51.298;5.802;2024-03-17T00:43:19;10.10;;;5.68;;
83682;SDS011;73663;51.298;5.802;2024-03-17T00:48:27;10.07;;;5.40;;
83682;SDS011;73663;51.298;5.802;2024-03-17T00:53:34;10.38;;;5.90;;
83682;SDS011;73663;51.298;5.802;2024-03-17T00:58:42;11.65;;;6.20;;
83682;SDS011;73663;51.298;5.802;2024-03-17T01:03:49;11.60;;;5.63;;
83682;SDS011;73663;51.298;5.802;2024-03-17T01:08:57;11.15;;;6.15;;
83682;SDS011;73663;51.298;5.802;2024-03-17T01:14:04;12.77;;;6.72;;
83682;SDS011;73663;51.298;5.802;2024-03-17T01:19:15;14.75;;;7.30;;
83682;SDS011;73663;51.298;5.802;2024-03-17T01:24:22;12.27;;;7.07;;
83682;SDS011;73663;51.298;5.802;2024-03-17T01:29:30;13.90;;;7.65;;
83682;SDS011;73663;51.298;5.802;2024-03-17T01:34:37;12.88;;;6.75;;
83682;SDS011;73663;51.298;5.802;2024-03-17T01:39:45;13.93;;;7.43;;
83682;SDS011;73663;51.298;5.802;2024-03-17T01:44:53;14.43;;;7.53;;
83682;SDS011;73663;51.298;5.802;2024-03-17T01:50:00;14.80;;;7.55;;
83682;SDS011;73663;51.298;5.802;2024-03-17T01:55:08;14.30;;;7.30;;
83682;SDS011;73663;51.298;5.802;2024-03-17T02:00:16;13.48;;;7.68;;
83682;SDS011;73663;51.298;5.802;2024-03-17T02:05:23;16.17;;;8.23;;
83682;SDS011;73663;51.298;5.802;2024-03-17T02:10:31;15.45;;;8.27;;
83682;SDS011;73663;51.298;5.802;2024-03-17T02:15:38;13.30;;;8.00;;
83682;SDS011;73663;51.298;5.802;2024-03-17T02:20:46;14.88;;;7.95;;
83682;SDS011;73663;51.298;5.802;2024-03-17T02:25:59;19.95;;;8.27;;
83682;SDS011;73663;51.298;5.802;2024-03-17T02:31:07;16.70;;;8.75;;
83682;SDS011;73663;51.298;5.802;2024-03-17T02:36:15;15.43;;;8.13;;
83682;SDS011;73663;51.298;5.802;2024-03-17T02:41:23;17.23;;;8.60;;
83682;SDS011;73663;51.298;5.802;2024-03-17T02:46:30;15.13;;;8.10;;
83682;SDS011;73663;51.298;5.802;2024-03-17T02:51:38;16.90;;;8.88;;
83682;SDS011;73663;51.298;5.802;2024-03-17T02:56:46;18.67;;;9.15;;
83682;SDS011;73663;51.298;5.802;2024-03-17T03:01:53;14.57;;;8.70;;
83682;SDS011;73663;51.298;5.802;2024-03-17T03:07:01;14.45;;;8.23;;
83682;SDS011;73663;51.298;5.802;2024-03-17T03:12:09;17.77;;;8.90;;
83682;SDS011;73663;51.298;5.802;2024-03-17T03:17:16;16.33;;;8.65;;
83682;SDS011;73663;51.298;5.802;2024-03-17T03:22:24;16.67;;;8.73;;
83682;SDS011;73663;51.298;5.802;2024-03-17T03:27:31;17.50;;;8.35;;
83682;SDS011;73663;51.298;5.802;2024-03-17T03:32:39;16.48;;;8.88;;
83682;SDS011;73663;51.298;5.802;2024-03-17T03:37:46;16.98;;;8.77;;
83682;SDS011;73663;51.298;5.802;2024-03-17T03:42:54;15.40;;;8.57;;
83682;SDS011;73663;51.298;5.802;2024-03-17T03:48:02;13.73;;;8.05;;
83682;SDS011;73663;51.298;5.802;2024-03-17T03:53:11;18.17;;;9.02;;
83682;SDS011;73663;51.298;5.802;2024-03-17T03:58:18;19.83;;;8.70;;
83682;SDS011;73663;51.298;5.802;2024-03-17T04:03:26;14.45;;;7.75;;
83682;SDS011;73663;51.298;5.802;2024-03-17T04:08:34;13.55;;;8.35;;
83682;SDS011;73663;51.298;5.802;2024-03-17T04:13:42;14.80;;;8.20;;
83682;SDS011;73663;51.298;5.802;2024-03-17T04:18:49;13.60;;;7.63;;
83682;SDS011;73663;51.298;5.802;2024-03-17T04:23:57;16.17;;;8.02;;
83682;SDS011;73663;51.298;5.802;2024-03-17T04:29:04;12.65;;;7.05;;
83682;SDS011;73663;51.298;5.802;2024-03-17T04:34:12;12.65;;;7.32;;
83682;SDS011;73663;51.298;5.802;2024-03-17T04:39:19;14.07;;;6.88;;
83682;SDS011;73663;51.298;5.802;2024-03-17T04:44:27;11.02;;;6.93;;
83682;SDS011;73663;51.298;5.802;2024-03-17T04:49:41;9.55;;;6.10;;
83682;SDS011;73663;51.298;5.802;2024-03-17T04:54:50;14.30;;;6.70;;
83682;SDS011;73663;51.298;5.802;2024-03-17T04:59:57;12.65;;;6.45;;
83682;SDS011;73663;51.298;5.802;2024-03-17T05:05:05;12.30;;;6.30;;
83682;SDS011;73663;51.298;5.802;2024-03-17T05:10:12;12.05;;;6.60;;
83682;SDS011;73663;51.298;5.802;2024-03-17T05:15:20;13.13;;;6.68;;
83682;SDS011;73663;51.298;5.802;2024-03-17T05:20:27;10.60;;;6.10;;
83682;SDS011;73663;51.298;5.802;2024-03-17T05:25:35;12.25;;;6.40;;
83682;SDS011;73663;51.298;5.802;2024-03-17T05:30:42;14.30;;;7.10;;
83682;SDS011;73663;51.298;5.802;2024-03-17T05:35:50;11.68;;;6.35;;
83682;SDS011;73663;51.298;5.802;2024-03-17T05:41:01;10.77;;;6.07;;
83682;SDS011;73663;51.298;5.802;2024-03-17T05:46:09;11.75;;;5.88;;
83682;SDS011;73663;51.298;5.802;2024-03-17T05:51:17;9.90;;;5.35;;
83682;SDS011;73663;51.298;5.802;2024-03-17T05:56:24;11.13;;;5.68;;
83682;SDS011;73663;51.298;5.802;2024-03-17T06:01:32;10.38;;;5.60;;
83682;SDS011;73663;51.298;5.802;2024-03-17T06:06:39;10.98;;;5.40;;
83682;SDS011;73663;51.298;5.802;2024-03-17T06:11:47;11.23;;;5.55;;
83682;SDS011;73663;51.298;5.802;2024-03-17T06:16:54;9.77;;;5.47;;
83682;SDS011;73663;51.298;5.802;2024-03-17T06:22:02;9.70;;;5.18;;
83682;SDS011;73663;51.298;5.802;2024-03-17T06:27:09;9.15;;;5.35;;
83682;SDS011;73663;51.298;5.802;2024-03-17T06:32:16;8.20;;;4.88;;
83682;SDS011;73663;51.298;5.802;2024-03-17T06:37:24;10.23;;;4.72;;
83682;SDS011;73663;51.298;5.802;2024-03-17T06:42:31;9.18;;;4.65;;
83682;SDS011;73663;51.298;5.802;2024-03-17T06:47:39;11.52;;;4.78;;
83682;SDS011;73663;51.298;5.802;2024-03-17T06:52:46;9.30;;;4.93;;
83682;SDS011;73663;51.298;5.802;2024-03-17T06:57:54;11.38;;;5.35;;
83682;SDS011;73663;51.298;5.802;2024-03-17T07:03:01;9.15;;;4.28;;
83682;SDS011;73663;51.298;5.802;2024-03-17T07:08:09;7.18;;;4.03;;
83682;SDS011;73663;51.298;5.802;2024-03-17T07:13:16;8.23;;;3.88;;
83682;SDS011;73663;51.298;5.802;2024-03-17T07:18:24;10.38;;;4.63;;
83682;SDS011;73663;51.298;5.802;2024-03-17T07:23:31;8.32;;;4.50;;
83682;SDS011;73663;51.298;5.802;2024-03-17T07:28:39;8.45;;;3.67;;
83682;SDS011;73663;51.298;5.802;2024-03-17T07:33:47;6.32;;;4.05;;
83682;SDS011;73663;51.298;5.802;2024-03-17T07:38:54;7.53;;;3.60;;
83682;SDS011;73663;51.298;5.802;2024-03-17T07:44:02;5.78;;;3.95;;
83682;SDS011;73663;51.298;5.802;2024-03-17T07:49:09;7.53;;;3.92;;
83682;SDS011;73663;51.298;5.802;2024-03-17T07:54:17;6.22;;;3.58;;
83682;SDS011;73663;51.298;5.802;2024-03-17T07:59:24;6.38;;;3.33;;
83682;SDS011;73663;51.298;5.802;2024-03-17T08:04:32;6.90;;;3.80;;
83682;SDS011;73663;51.298;5.802;2024-03-17T08:09:39;7.00;;;3.65;;
83682;SDS011;73663;51.298;5.802;2024-03-17T08:14:47;6.35;;;3.38;;
83682;SDS011;73663;51.298;5.802;2024-03-17T08:19:54;6.18;;;3.15;;
83682;SDS011;73663;51.298;5.802;2024-03-17T08:25:02;8.77;;;3.50;;
83682;SDS011;73663;51.298;5.802;2024-03-17T08:30:09;6.18;;;4.07;;
83682;SDS011;73663;51.298;5.802;2024-03-17T08:35:17;6.82;;;4.28;;
83682;SDS011;73663;51.298;5.802;2024-03-17T08:40:24;7.05;;;3.85;;
83682;SDS011;73663;51.298;5.802;2024-03-17T08:45:32;9.13;;;4.32;;
83682;SDS011;73663;51.298;5.802;2024-03-17T08:50:39;5.53;;;3.78;;
83682;SDS011;73663;51.298;5.802;2024-03-17T08:55:54;7.28;;;4.20;;
83682;SDS011;73663;51.298;5.802;2024-03-17T09:01:02;7.88;;;4.03;;
83682;SDS011;73663;51.298;5.802;2024-03-17T09:06:13;6.47;;;3.75;;
83682;SDS011;73663;51.298;5.802;2024-03-17T09:11:21;5.57;;;3.88;;
83682;SDS011;73663;51.298;5.802;2024-03-17T09:16:29;6.32;;;3.10;;
83682;SDS011;73663;51.298;5.802;2024-03-17T09:21:37;5.80;;;3.90;;
83682;SDS011;73663;51.298;5.802;2024-03-17T09:26:45;9.65;;;3.30;;
83682;SDS011;73663;51.298;5.802;2024-03-17T09:31:52;6.40;;;3.90;;
83682;SDS011;73663;51.298;5.802;2024-03-17T09:37:00;9.48;;;4.03;;
83682;SDS011;73663;51.298;5.802;2024-03-17T09:42:07;4.85;;;3.47;;
83682;SDS011;73663;51.298;5.802;2024-03-17T09:47:22;5.10;;;3.58;;
83682;SDS011;73663;51.298;5.802;2024-03-17T09:52:33;10.15;;;3.90;;
83682;SDS011;73663;51.298;5.802;2024-03-17T09:57:41;7.40;;;3.85;;
83682;SDS011;73663;51.298;5.802;2024-03-17T10:02:49;7.15;;;3.90;;
83682;SDS011;73663;51.298;5.802;2024-03-17T10:07:57;7.00;;;3.85;;
83682;SDS011;73663;51.298;5.802;2024-03-17T10:13:04;6.93;;;3.95;;
83682;SDS011;73663;51.298;5.802;2024-03-17T10:18:25;8.77;;;4.32;;
83682;SDS011;73663;51.298;5.802;2024-03-17T10:23:33;6.10;;;3.83;;
83682;SDS011;73663;51.298;5.802;2024-03-17T10:28:40;6.35;;;3.55;;
83682;SDS011;73663;51.298;5.802;2024-03-17T10:34:00;5.85;;;3.80;;
83682;SDS011;73663;51.298;5.802;2024-03-17T10:39:13;8.02;;;3.70;;
83682;SDS011;73663;51.298;5.802;2024-03-17T10:44:31;6.68;;;3.83;;
83682;SDS011;73663;51.298;5.802;2024-03-17T10:49:39;7.47;;;4.00;;
83682;SDS011;73663;51.298;5.802;2024-03-17T10:54:48;10.52;;;4.28;;
83682;SDS011;73663;51.298;5.802;2024-03-17T10:59:55;7.05;;;3.50;;
83682;SDS011;73663;51.298;5.802;2024-03-17T11:05:05;7.88;;;3.88;;
83682;SDS011;73663;51.298;5.802;2024-03-17T11:10:22;6.10;;;3.60;;
83682;SDS011;73663;51.298;5.802;2024-03-17T11:15:38;8.35;;;4.38;;
83682;SDS011;73663;51.298;5.802;2024-03-17T11:20:55;7.93;;;4.55;;
83682;SDS011;73663;51.298;5.802;2024-03-17T11:26:09;8.02;;;3.47;;
83682;SDS011;73663;51.298;5.802;2024-03-17T11:31:36;9.88;;;4.20;;
83682;SDS011;73663;51.298;5.802;2024-03-17T11:36:48;7.80;;;4.50;;
83682;SDS011;73663;51.298;5.802;2024-03-17T11:41:55;9.15;;;4.60;;
83682;SDS011;73663;51.298;5.802;2024-03-17T11:52:22;6.65;;;4.07;;
83682;SDS011;73663;51.298;5.802;2024-03-17T11:57:29;6.63;;;4.00;;
83682;SDS011;73663;51.298;5.802;2024-03-17T12:02:37;7.57;;;4.43;;
83682;SDS011;73663;51.298;5.802;2024-03-17T12:07:45;6.05;;;3.80;;
83682;SDS011;73663;51.298;5.802;2024-03-17T12:12:54;6.65;;;4.18;;
83682;SDS011;73663;51.298;5.802;2024-03-17T12:18:02;6.50;;;4.28;;
83682;SDS011;73663;51.298;5.802;2024-03-17T12:23:10;6.65;;;4.47;;
83682;SDS011;73663;51.298;5.802;2024-03-17T12:28:23;8.07;;;5.00;;
83682;SDS011;73663;51.298;5.802;2024-03-17T12:33:30;8.85;;;4.68;;
83682;SDS011;73663;51.298;5.802;2024-03-17T12:38:38;6.40;;;3.60;;
83682;SDS011;73663;51.298;5.802;2024-03-17T12:43:51;6.22;;;4.03;;
83682;SDS011;73663;51.298;5.802;2024-03-17T12:49:02;6.47;;;3.72;;
83682;SDS011;73663;51.298;5.802;2024-03-17T12:54:13;7.18;;;4.07;;
83682;SDS011;73663;51.298;5.802;2024-03-17T12:59:23;6.32;;;4.10;;
83682;SDS011;73663;51.298;5.802;2024-03-17T13:10:28;6.22;;;3.70;;
83682;SDS011;73663;51.298;5.802;2024-03-17T13:15:36;5.90;;;3.55;;
83682;SDS011;73663;51.298;5.802;2024-03-17T13:20:44;5.93;;;3.50;;
83682;SDS011;73663;51.298;5.802;2024-03-17T13:25:51;5.32;;;3.55;;
83682;SDS011;73663;51.298;5.802;2024-03-17T13:30:59;9.18;;;4.18;;
83682;SDS011;73663;51.298;5.802;2024-03-17T13:36:06;6.30;;;3.70;;
83682;SDS011;73663;51.298;5.802;2024-03-17T13:41:14;7.70;;;3.65;;
83682;SDS011;73663;51.298;5.802;2024-03-17T13:46:22;5.53;;;3.75;;
83682;SDS011;73663;51.298;5.802;2024-03-17T13:51:29;6.03;;;3.40;;
83682;SDS011;73663;51.298;5.802;2024-03-17T13:56:37;5.18;;;3.40;;
83682;SDS011;73663;51.298;5.802;2024-03-17T14:01:44;4.60;;;3.13;;
83682;SDS011;73663;51.298;5.802;2024-03-17T14:06:52;5.13;;;3.17;;
83682;SDS011;73663;51.298;5.802;2024-03-17T14:11:59;5.45;;;2.65;;
83682;SDS011;73663;51.298;5.802;2024-03-17T14:17:07;5.25;;;2.88;;
83682;SDS011;73663;51.298;5.802;2024-03-17T14:22:15;5.30;;;2.55;;
83682;SDS011;73663;51.298;5.802;2024-03-17T14:27:22;6.35;;;2.58;;
83682;SDS011;73663;51.298;5.802;2024-03-17T14:32:30;4.32;;;2.45;;
83682;SDS011;73663;51.298;5.802;2024-03-17T14:37:37;3.33;;;2.80;;
83682;SDS011;73663;51.298;5.802;2024-03-17T14:42:45;5.60;;;3.22;;
83682;SDS011;73663;51.298;5.802;2024-03-17T14:47:52;14.55;;;6.03;;
83682;SDS011;73663;51.298;5.802;2024-03-17T14:53:00;6.93;;;3.22;;
83682;SDS011;73663;51.298;5.802;2024-03-17T14:58:07;6.82;;;2.90;;
83682;SDS011;73663;51.298;5.802;2024-03-17T15:03:15;5.38;;;2.72;;
83682;SDS011;73663;51.298;5.802;2024-03-17T15:08:22;4.88;;;2.88;;
83682;SDS011;73663;51.298;5.802;2024-03-17T15:13:30;6.85;;;3.38;;
83682;SDS011;73663;51.298;5.802;2024-03-17T15:18:37;5.80;;;2.95;;
83682;SDS011;73663;51.298;5.802;2024-03-17T15:23:45;4.30;;;2.90;;
83682;SDS011;73663;51.298;5.802;2024-03-17T15:28:52;5.00;;;3.10;;
83682;SDS011;73663;51.298;5.802;2024-03-17T15:34:00;9.75;;;6.32;;
83682;SDS011;73663;51.298;5.802;2024-03-17T15:39:07;5.57;;;2.80;;
83682;SDS011;73663;51.298;5.802;2024-03-17T15:44:15;6.57;;;2.88;;
83682;SDS011;73663;51.298;5.802;2024-03-17T15:49:23;4.28;;;3.08;;
83682;SDS011;73663;51.298;5.802;2024-03-17T15:54:30;6.45;;;3.67;;
83682;SDS011;73663;51.298;5.802;2024-03-17T15:59:38;5.15;;;3.17;;
83682;SDS011;73663;51.298;5.802;2024-03-17T16:04:45;4.85;;;3.22;;
83682;SDS011;73663;51.298;5.802;2024-03-17T16:09:54;8.13;;;3.33;;
83682;SDS011;73663;51.298;5.802;2024-03-17T16:15:01;6.38;;;3.58;;
83682;SDS011;73663;51.298;5.802;2024-03-17T16:20:09;6.22;;;3.08;;
83682;SDS011;73663;51.298;5.802;2024-03-17T16:25:36;6.35;;;3.00;;
83682;SDS011;73663;51.298;5.802;2024-03-17T16:30:44;5.30;;;3.10;;
83682;SDS011;73663;51.298;5.802;2024-03-17T16:35:51;6.57;;;3.28;;
83682;SDS011;73663;51.298;5.802;2024-03-17T16:41:00;5.22;;;3.03;;
83682;SDS011;73663;51.298;5.802;2024-03-17T16:51:41;8.38;;;3.65;;
83682;SDS011;73663;51.298;5.802;2024-03-17T16:56:49;9.00;;;4.30;;
83682;SDS011;73663;51.298;5.802;2024-03-17T17:01:56;8.18;;;3.42;;
83682;SDS011;73663;51.298;5.802;2024-03-17T17:07:04;7.63;;;3.80;;
83682;SDS011;73663;51.298;5.802;2024-03-17T17:12:11;8.73;;;4.50;;
83682;SDS011;73663;51.298;5.802;2024-03-17T17:22:26;8.55;;;4.90;;
83682;SDS011;73663;51.298;5.802;2024-03-17T17:27:33;13.57;;;6.05;;
83682;SDS011;73663;51.298;5.802;2024-03-17T17:32:42;6.60;;;4.15;;
83682;SDS011;73663;51.298;5.802;2024-03-17T17:37:49;8.05;;;4.28;;
83682;SDS011;73663;51.298;5.802;2024-03-17T17:42:57;7.35;;;4.07;;
83682;SDS011;73663;51.298;5.802;2024-03-17T17:48:04;7.90;;;3.80;;
83682;SDS011;73663;51.298;5.802;2024-03-17T17:53:12;7.68;;;3.95;;
83682;SDS011;73663;51.298;5.802;2024-03-17T17:58:19;6.07;;;3.50;;
83682;SDS011;73663;51.298;5.802;2024-03-17T18:03:27;6.13;;;3.67;;
83682;SDS011;73663;51.298;5.802;2024-03-17T18:08:34;9.52;;;5.75;;
83682;SDS011;73663;51.298;5.802;2024-03-17T18:13:42;19.98;;;15.23;;
83682;SDS011;73663;51.298;5.802;2024-03-17T18:18:49;12.50;;;11.25;;
83682;SDS011;73663;51.298;5.802;2024-03-17T18:23:58;8.73;;;6.15;;
83682;SDS011;73663;51.298;5.802;2024-03-17T18:34:11;8.15;;;7.20;;
83682;SDS011;73663;51.298;5.802;2024-03-17T18:39:19;7.30;;;4.28;;
83682;SDS011;73663;51.298;5.802;2024-03-17T18:44:26;8.00;;;4.32;;
83682;SDS011;73663;51.298;5.802;2024-03-17T18:49:34;6.30;;;3.92;;
83682;SDS011;73663;51.298;5.802;2024-03-17T18:54:41;8.45;;;4.03;;
83682;SDS011;73663;51.298;5.802;2024-03-17T18:59:55;8.27;;;4.30;;
83682;SDS011;73663;51.298;5.802;2024-03-17T19:05:03;7.90;;;4.20;;
83682;SDS011;73663;51.298;5.802;2024-03-17T19:10:11;8.15;;;4.38;;
83682;SDS011;73663;51.298;5.802;2024-03-17T19:20:25;9.82;;;4.97;;
83682;SDS011;73663;51.298;5.802;2024-03-17T19:25:32;7.93;;;4.68;;
83682;SDS011;73663;51.298;5.802;2024-03-17T19:30:40;8.05;;;4.10;;
83682;SDS011;73663;51.298;5.802;2024-03-17T19:35:49;8.35;;;3.70;;
83682;SDS011;73663;51.298;5.802;2024-03-17T19:40:57;5.18;;;3.13;;
83682;SDS011;73663;51.298;5.802;2024-03-17T19:46:07;5.82;;;3.28;;
83682;SDS011;73663;51.298;5.802;2024-03-17T19:51:15;5.13;;;3.13;;
83682;SDS011;73663;51.298;5.802;2024-03-17T19:56:23;5.93;;;3.03;;
83682;SDS011;73663;51.298;5.802;2024-03-17T20:01:31;7.35;;;2.88;;
83682;SDS011;73663;51.298;5.802;2024-03-17T20:06:38;5.95;;;3.42;;
83682;SDS011;73663;51.298;5.802;2024-03-17T20:11:46;6.55;;;3.22;;
83682;SDS011;73663;51.298;5.802;2024-03-17T20:16:53;5.45;;;2.78;;
83682;SDS011;73663;51.298;5.802;2024-03-17T20:22:01;7.55;;;2.80;;
83682;SDS011;73663;51.298;5.802;2024-03-17T20:27:08;4.72;;;2.92;;
83682;SDS011;73663;51.298;5.802;2024-03-17T20:32:16;5.95;;;2.80;;
83682;SDS011;73663;51.298;5.802;2024-03-17T20:37:23;9.80;;;4.43;;
83682;SDS011;73663;51.298;5.802;2024-03-17T20:42:31;6.10;;;3.08;;
83682;SDS011;73663;51.298;5.802;2024-03-17T20:47:38;11.30;;;6.82;;
83682;SDS011;73663;51.298;5.802;2024-03-17T20:52:46;7.75;;;3.15;;
83682;SDS011;73663;51.298;5.802;2024-03-17T20:57:53;6.65;;;4.47;;
83682;SDS011;73663;51.298;5.802;2024-03-17T21:03:01;6.57;;;3.90;;
83682;SDS011;73663;51.298;5.802;2024-03-17T21:08:08;6.18;;;2.88;;
83682;SDS011;73663;51.298;5.802;2024-03-17T21:13:18;6.95;;;4.13;;
83682;SDS011;73663;51.298;5.802;2024-03-17T21:18:25;4.38;;;3.22;;
83682;SDS011;73663;51.298;5.802;2024-03-17T21:23:33;7.55;;;3.63;;
83682;SDS011;73663;51.298;5.802;2024-03-17T21:28:40;5.95;;;3.78;;
83682;SDS011;73663;51.298;5.802;2024-03-17T21:33:48;7.40;;;4.35;;
83682;SDS011;73663;51.298;5.802;2024-03-17T21:38:55;7.88;;;3.58;;
83682;SDS011;73663;51.298;5.802;2024-03-17T21:44:03;8.55;;;4.20;;
83682;SDS011;73663;51.298;5.802;2024-03-17T21:49:10;10.15;;;4.40;;
83682;SDS011;73663;51.298;5.802;2024-03-17T21:54:17;9.15;;;5.22;;
83682;SDS011;73663;51.298;5.802;2024-03-17T21:59:25;12.15;;;5.70;;
83682;SDS011;73663;51.298;5.802;2024-03-17T22:04:33;8.18;;;4.43;;
83682;SDS011;73663;51.298;5.802;2024-03-17T22:09:40;7.95;;;3.95;;
83682;SDS011;73663;51.298;5.802;2024-03-17T22:14:47;8.35;;;3.92;;
83682;SDS011;73663;51.298;5.802;2024-03-17T22:19:55;10.55;;;4.40;;
83682;SDS011;73663;51.298;5.802;2024-03-17T22:25:02;9.18;;;5.10;;
83682;SDS011;73663;51.298;5.802;2024-03-17T22:30:11;9.80;;;5.05;;
83682;SDS011;73663;51.298;5.802;2024-03-17T22:35:18;9.15;;;4.55;;
83682;SDS011;73663;51.298;5.802;2024-03-17T22:40:26;8.52;;;4.78;;
83682;SDS011;73663;51.298;5.802;2024-03-17T22:45:33;8.10;;;4.57;;
83682;SDS011;73663;51.298;5.802;2024-03-17T22:50:41;9.38;;;5.75;;
83682;SDS011;73663;51.298;5.802;2024-03-17T22:55:49;8.50;;;4.57;;
83682;SDS011;73663;51.298;5.802;2024-03-17T23:00:57;9.68;;;5.15;;
83682;SDS011;73663;51.298;5.802;2024-03-17T23:11:11;10.60;;;5.07;;
83682;SDS011;73663;51.298;5.802;2024-03-17T23:16:19;12.93;;;5.00;;
83682;SDS011;73663;51.298;5.802;2024-03-17T23:21:26;9.77;;;5.13;;
83682;SDS011;73663;51.298;5.802;2024-03-17T23:26:34;9.70;;;5.10;;
83682;SDS011;73663;51.298;5.802;2024-03-17T23:31:41;8.35;;;4.63;;
83682;SDS011;73663;51.298;5.802;2024-03-17T23:36:49;10.60;;;5.20;;
83682;SDS011;73663;51.298;5.802;2024-03-17T23:41:56;11.52;;;4.90;;
83682;SDS011;73663;51.298;5.802;2024-03-17T23:47:04;10.32;;;5.05;;
83682;SDS011;73663;51.298;5.802;2024-03-17T23:52:11;11.85;;;5.60;;
83682;SDS011;73663;51.298;5.802;2024-03-17T23:57:19;11.52;;;5.53;;
